DW8790 Maspalomas ES current weather conditions

sailwx.info

Wind from 286 at 12 knots gusting 17

Air temperature 19.4° C
Dewpoint 15.1° C

Last reported at 2014-Nov-27 22:40 UTC.
Time now 2014-Nov-27 23:10 UTC

Location: N 27°46' W 015°34'.
View on Google Maps.

See reports from other nearby stations

  
Tides and Currents Weather Stations Pressure Air Temp Water Temp Dewpoint Dewpoint Depression Visibility Wind Speed Wind Dir Waves Ship Positions
date/time (UTC)wind fromknots sea level pressurealtimeterstation pressurevisibilityair tempwater tempwave heightnotes
2014-Nov-27 22:40 286 12 gusting 17 19.4
2014-Nov-27 22:30 284 9 gusting 18 19.4
2014-Nov-27 22:10 290 6 gusting 17 19.4
2014-Nov-27 22:00 284 6 gusting 13 19.4
2014-Nov-27 21:50 271 7 gusting 14 20.0
2014-Nov-27 21:40 283 6 gusting 13 20.0
2014-Nov-27 21:30 275 10 gusting 17 20.0
2014-Nov-27 21:10 273 8 gusting 17 20.0
2014-Nov-27 21:00 271 10 gusting 17 20.0
2014-Nov-27 20:50 282 8 gusting 15 20.0
2014-Nov-27 20:40 282 6 gusting 13 20.0
2014-Nov-27 20:30 287 6 gusting 13 20.0
2014-Nov-27 20:10 285 4 gusting 8 20.0
2014-Nov-27 20:00 273 3 gusting 5 20.6
2014-Nov-27 19:50 287 4 gusting 8 20.6
2014-Nov-27 19:40 273 4 gusting 6 20.6
2014-Nov-27 19:30 276 5 gusting 7 20.6
2014-Nov-27 19:10 246 2 gusting 8 20.6
2014-Nov-27 19:00 237 3 gusting 6 20.6
2014-Nov-27 18:50 226 2 gusting 5 21.1
2014-Nov-27 18:40 263 1 gusting 5 20.6
2014-Nov-27 18:30 259 4 gusting 5 20.6
2014-Nov-27 17:40 233 2 gusting 4 21.7
2014-Nov-27 17:30 195 2 gusting 4 22.2
2014-Nov-27 17:10 192 2 gusting 5 22.8
2014-Nov-27 17:00 172 2 gusting 6 22.8
2014-Nov-27 16:50 212 4 gusting 7 22.8
2014-Nov-27 16:40 206 2 gusting 7 22.8
2014-Nov-27 16:30 242 4 gusting 7 22.2
2014-Nov-27 16:10 260 6 gusting 10 22.2
2014-Nov-27 16:00 264 6 gusting 11 22.2
2014-Nov-27 15:50 269 6 gusting 12 22.2
2014-Nov-27 15:40 261 7 gusting 12 22.2
2014-Nov-27 15:30 272 10 gusting 14 21.7
2014-Nov-27 15:10 256 8 gusting 14 22.2
2014-Nov-27 15:00 257 10 gusting 14 22.2
2014-Nov-27 14:50 261 11 gusting 18 22.2
2014-Nov-27 14:40 250 10 gusting 18 22.8
2014-Nov-27 14:30 262 10 gusting 15 22.2
2014-Nov-27 14:10 260 11 gusting 18 22.2
2014-Nov-27 14:00 262 10 gusting 18 22.8
2014-Nov-27 13:50 256 11 gusting 19 22.2
2014-Nov-27 13:40 253 7 gusting 13 23.3
2014-Nov-27 13:30 229 8 gusting 13 23.3
2014-Nov-27 13:10 243 7 gusting 11 23.3
2014-Nov-27 13:00 243 5 gusting 8 23.3
2014-Nov-27 12:50 266 5 gusting 10 23.3
2014-Nov-27 12:40 245 4 gusting 8 23.3
2014-Nov-27 12:30 251 4 gusting 10 23.3
2014-Nov-27 12:10 222 4 gusting 6 23.3
2014-Nov-27 12:00 258 6 gusting 10 23.3
2014-Nov-27 11:50 219 4 gusting 10 23.3
2014-Nov-27 11:40 226 3 gusting 10 23.3
2014-Nov-27 11:30 246 4 gusting 10 23.3
2014-Nov-27 11:10 234 4 gusting 6 23.3
2014-Nov-27 11:00 175 1 gusting 4 23.3
2014-Nov-27 10:50 264 1 gusting 6 23.3
2014-Nov-27 10:40 221 2 gusting 7 22.8
2014-Nov-27 10:30 135 4 gusting 8 22.8
2014-Nov-27 10:10 127 6 gusting 10 22.2
2014-Nov-27 10:00 129 4 gusting 10 22.2
2014-Nov-27 09:50 130 5 gusting 10 22.2
2014-Nov-27 09:40 122 5 gusting 10 22.2
2014-Nov-27 09:30 120 6 gusting 8 22.2
2014-Nov-27 09:10 085 2 gusting 6 21.1
2014-Nov-27 09:00 026 1 gusting 6 20.6
2014-Nov-27 08:50 014 2 gusting 5 20.0
2014-Nov-27 08:40 326 1 gusting 2 18.9
2014-Nov-27 08:30 086 19.4
2014-Nov-27 08:10 341 1 gusting 5 18.3
2014-Nov-27 08:00 310 1 gusting 4 17.8
2014-Nov-27 07:50 014 0 gusting 2 17.2
2014-Nov-27 07:40 014 1 gusting 2 17.2
2014-Nov-27 07:30 014 1 gusting 2 17.8
2014-Nov-27 07:10 014 1 gusting 6 17.2
2014-Nov-27 07:00 17.2
2014-Nov-27 06:50 358 1 gusting 5 16.7
2014-Nov-27 06:40 338 17.2
2014-Nov-27 06:30 338 17.2
2014-Nov-27 06:10 298 17.2
2014-Nov-27 06:00 298 16.7
2014-Nov-27 05:50 298 17.2
2014-Nov-27 05:40 298 17.2
2014-Nov-27 05:30 298 1 gusting 2 17.2
2014-Nov-27 05:10 010 1 gusting 2 17.2
2014-Nov-27 05:00 286 1 gusting 2 17.8
2014-Nov-27 04:50 286 1 gusting 2 17.8
2014-Nov-27 04:40 346 0 gusting 4 17.8
2014-Nov-27 04:30 341 4 gusting 6 17.8
2014-Nov-27 04:10 348 4 gusting 6 17.8
2014-Nov-27 04:00 355 0 gusting 4 17.8
2014-Nov-27 03:50 352 2 gusting 5 17.8
2014-Nov-27 03:40 17.2
2014-Nov-27 03:30 355 17.8
2014-Nov-27 03:10 355 0 gusting 2 17.8
2014-Nov-27 03:00 17.8
2014-Nov-27 02:50 17.2
2014-Nov-27 02:40 17.2
2014-Nov-27 02:30 310 1 gusting 2 17.2
2014-Nov-27 02:10 309 17.2
2014-Nov-27 02:00 309 17.2
2014-Nov-27 01:50 309 1 gusting 2 17.2
2014-Nov-27 01:40 309 17.2
2014-Nov-27 01:30 309 2 gusting 2 17.2
2014-Nov-27 01:10 345 0 gusting 2 17.8
2014-Nov-27 01:00 345 1 gusting 2 17.8
2014-Nov-27 00:50 345 2 gusting 2 17.8
2014-Nov-27 00:40 345 1 gusting 2 18.3
2014-Nov-27 00:30 345 18.3
2014-Nov-27 00:10 355 1 gusting 2 18.3
2014-Nov-27 00:00 355 18.3
2014-Nov-26 23:50 354 1 gusting 2 18.9
2014-Nov-26 23:40 009 1 gusting 4 18.9
2014-Nov-26 23:30 020 2 gusting 4 18.9
2014-Nov-26 23:10 014 0 gusting 5 18.9
2014-Nov-26 23:00 350 4 gusting 5 18.9
2014-Nov-26 22:50 018 0 gusting 2 18.3
2014-Nov-26 22:40 009 1 gusting 2 18.3
2014-Nov-26 22:30 254 0 gusting 2 18.3
2014-Nov-26 22:10 254 18.9
2014-Nov-26 22:00 254 18.9
2014-Nov-26 21:50 254 18.9
2014-Nov-26 21:40 254 1 gusting 2 18.9
2014-Nov-26 21:30 254 18.9
2014-Nov-26 21:10 254 18.9
2014-Nov-26 21:00 254 18.9
2014-Nov-26 20:50 254 1 gusting 2 18.9
2014-Nov-26 20:40 254 18.9
2014-Nov-26 20:30 254 18.9
2014-Nov-26 20:10 254 19.4
2014-Nov-26 20:00 254 19.4
2014-Nov-26 19:50 254 19.4
2014-Nov-26 19:40 254 19.4
2014-Nov-26 19:30 254 20.0
2014-Nov-26 19:10 254 20.0
2014-Nov-26 19:00 254 20.0
2014-Nov-26 18:50 254 20.6
2014-Nov-26 18:40 254 20.6
2014-Nov-26 18:30 198 1 gusting 5 20.6
2014-Nov-26 18:10 185 5 gusting 7 21.1
2014-Nov-26 18:00 146 3 gusting 6 21.1
2014-Nov-26 17:50 207 3 gusting 10 21.1
2014-Nov-26 17:40 240 4 gusting 10 21.1
2014-Nov-26 17:30 240 5 gusting 10 21.7
2014-Nov-26 17:10 196 1 gusting 8 22.2
2014-Nov-26 17:00 235 5 gusting 10 22.2
2014-Nov-26 16:50 206 5 gusting 10 22.2
2014-Nov-26 16:40 240 4 gusting 8 22.8
2014-Nov-26 16:30 211 5 gusting 10 22.8
2014-Nov-26 16:10 202 6 gusting 13 22.8
2014-Nov-26 16:00 231 6 gusting 10 22.8
2014-Nov-26 15:50 198 4 gusting 10 23.3
2014-Nov-26 15:40 195 5 gusting 10 23.3
2014-Nov-26 15:30 248 6 gusting 10 23.3
2014-Nov-26 15:10 163 4 gusting 11 23.3
2014-Nov-26 15:00 177 5 gusting 7 23.3
2014-Nov-26 14:50 182 4 gusting 7 23.3
2014-Nov-26 14:40 187 4 gusting 6 23.3
2014-Nov-26 14:30 169 4 gusting 8 23.3
2014-Nov-26 14:10 156 3 gusting 7 23.3
2014-Nov-26 14:00 146 5 gusting 8 23.3
2014-Nov-26 13:50 141 6 gusting 8 23.3
2014-Nov-26 13:40 140 4 gusting 10 23.3
2014-Nov-26 13:30 132 4 gusting 11 23.3
2014-Nov-26 13:10 145 5 gusting 10 23.3
2014-Nov-26 13:00 156 5 gusting 11 23.3
2014-Nov-26 12:50 158 6 gusting 10 23.3
2014-Nov-26 12:40 174 4 gusting 10 23.3
2014-Nov-26 12:30 144 5 gusting 10 23.3
2014-Nov-26 12:10 150 5 gusting 10 23.3
2014-Nov-26 12:00 119 7 gusting 10 22.8
2014-Nov-26 11:40 129 5 gusting 10 23.3
2014-Nov-26 11:30 122 4 gusting 8 23.3
2014-Nov-26 11:10 128 3 gusting 8 22.8
2014-Nov-26 11:00 109 6 gusting 8 22.8
2014-Nov-26 10:50 104 5 gusting 7 23.3
2014-Nov-26 10:40 119 4 gusting 7 23.3
2014-Nov-26 10:30 137 3 gusting 6 23.3
2014-Nov-26 10:10 165 0 gusting 4 22.8
2014-Nov-26 10:00 153 1 gusting 5 22.2
2014-Nov-26 09:50 258 2 gusting 4 22.2
2014-Nov-26 09:40 294 1 gusting 4 22.2
2014-Nov-26 09:30 312 2 gusting 5 21.7
2014-Nov-26 09:10 337 2 gusting 6 20.6
2014-Nov-26 09:00 348 2 gusting 6 20.6
2014-Nov-26 08:50 340 3 gusting 6 20.0
2014-Nov-26 08:40 347 4 gusting 7 19.4
2014-Nov-26 08:30 348 5 gusting 10 18.9
2014-Nov-26 08:10 350 6 gusting 10 17.8
2014-Nov-26 08:00 333 6 gusting 8 17.8
2014-Nov-26 07:50 345 5 gusting 10 17.2
2014-Nov-26 07:40 345 6 gusting 10 17.2
2014-Nov-26 07:30 333 5 gusting 8 17.2
2014-Nov-26 07:10 344 2 gusting 6 17.2
2014-Nov-26 07:00 350 6 gusting 7 17.2
2014-Nov-26 06:50 343 5 gusting 7 17.2
2014-Nov-26 06:40 348 5 gusting 7 17.2
2014-Nov-26 06:30 003 5 gusting 7 17.2
2014-Nov-26 06:10 351 5 gusting 10 17.2
2014-Nov-26 06:00 352 6 gusting 10 17.2
2014-Nov-26 05:50 345 4 gusting 10 17.2
2014-Nov-26 05:40 342 5 gusting 8 17.2
2014-Nov-26 05:30 342 5 gusting 8 17.2
2014-Nov-26 05:10 351 2 gusting 6 17.2
2014-Nov-26 05:00 333 4 gusting 7 17.2
2014-Nov-26 04:50 351 4 gusting 7 17.2
2014-Nov-26 04:40 336 1 gusting 6 17.2
2014-Nov-26 04:30 343 5 gusting 6 17.2
2014-Nov-26 04:20 347 5 gusting 6 17.2
2014-Nov-26 04:10 349 5 gusting 7 17.2
2014-Nov-26 04:00 344 4 gusting 6 17.2
2014-Nov-26 03:50 344 3 gusting 6 17.2
2014-Nov-26 03:40 348 3 gusting 6 17.2
2014-Nov-26 03:30 355 1 gusting 2 17.2
2014-Nov-26 03:10 341 2 gusting 4 16.7
2014-Nov-26 03:00 328 1 gusting 2 16.7
2014-Nov-26 02:50 328 1 gusting 2 17.2
2014-Nov-26 02:40 032 0 gusting 2 17.2
2014-Nov-26 02:30 032 17.2
2014-Nov-26 02:10 17.8
2014-Nov-26 02:00 001 2 gusting 6 17.8
2014-Nov-26 01:50 002 4 gusting 6 18.3
2014-Nov-26 01:40 357 2 gusting 5 18.3
2014-Nov-26 01:30 350 2 gusting 6 18.3
2014-Nov-26 01:10 343 5 gusting 7 18.3
2014-Nov-26 01:00 351 4 gusting 7 18.3
2014-Nov-26 00:50 335 4 gusting 6 18.3
2014-Nov-26 00:40 351 3 gusting 6 18.3
2014-Nov-26 00:30 350 3 gusting 6 18.3
2014-Nov-26 00:10 333 4 gusting 8 18.9
2014-Nov-26 00:00 340 5 gusting 8 18.3
2014-Nov-25 23:50 344 6 gusting 8 18.3
2014-Nov-25 23:40 341 6 gusting 8 18.3
2014-Nov-25 23:30 343 5 gusting 7 18.3
2014-Nov-25 23:20 338 5 gusting 8 18.3
2014-Nov-25 23:10 339 4 gusting 7 18.3
2014-Nov-25 23:00 344 5 gusting 7 18.3